Time;durP1;ratioP1;P1;durP2;ratioP2;P2;SDS_P1;SDS_P2;PMS_P1;PMS_P2;Temp;Humidity;BMP_temperature;BMP_pressure;BME280_temperature;BME280_humidity;BME280_pressure;Samples;Min_cycle;Max_cycle;Signal;HPM_P1;HPM_P2
2023/03/17 00:01:34;;;;;;;8.50;6.18;;;;;;;;;;5065532;28;20029;-74
2023/03/17 00:04:00;;;;;;;8.05;6.28;;;;;;;;;;5054743;28;20838;-74
2023/03/17 00:06:27;;;;;;;8.93;6.68;;;;;;;;;;5056818;28;20399;-74
2023/03/17 00:08:52;;;;;;;8.32;5.97;;;;;;;;;;5035093;28;20479;-75
2023/03/17 00:11:19;;;;;;;9.50;6.80;;;;;;;;;;5034084;28;20029;-76
2023/03/17 00:13:45;;;;;;;8.20;6.50;;;;;;;;;;5034332;28;20119;-75
2023/03/17 00:16:15;;;;;;;9.25;5.70;;;;;;;;;;5014690;28;20049;-75
2023/03/17 00:18:40;;;;;;;9.35;6.60;;;;;;;;;;5029692;28;20407;-75
2023/03/17 00:21:09;;;;;;;8.85;6.35;;;;;;;;;;5052078;28;20032;-75
2023/03/17 00:23:34;;;;;;;11.20;6.43;;;;;;;;;;5034243;28;20059;-75
2023/03/17 00:26:00;;;;;;;9.50;5.50;;;;;;;;;;5052116;28;20037;-75
2023/03/17 00:28:26;;;;;;;10.90;6.75;;;;;;;;;;5052322;28;20021;-75
2023/03/17 00:30:57;;;;;;;8.98;5.85;;;;;;;;;;5034135;28;20138;-75
2023/03/17 00:33:24;;;;;;;9.35;6.07;;;;;;;;;;5036689;28;20526;-73
2023/03/17 00:35:49;;;;;;;8.82;5.70;;;;;;;;;;5015499;28;20032;-75
2023/03/17 00:38:15;;;;;;;7.70;5.00;;;;;;;;;;5036539;28;20400;-75
2023/03/17 00:40:41;;;;;;;8.20;4.90;;;;;;;;;;5033517;28;20519;-75
2023/03/17 00:43:07;;;;;;;;;;;;;;;;;;5017456;28;20028;-73
2023/03/17 00:45:35;;;;;;;7.50;4.30;;;;;;;;;;5052736;28;19908;-73
2023/03/17 00:48:02;;;;;;;8.45;5.15;;;;;;;;;;5028592;28;20086;-73
2023/03/17 00:50:27;;;;;;;9.88;5.70;;;;;;;;;;5048038;28;20048;-76
2023/03/17 00:52:54;;;;;;;6.85;4.60;;;;;;;;;;5056640;28;20020;-74
2023/03/17 00:55:21;;;;;;;7.20;4.80;;;;;;;;;;5053125;28;20057;-75
2023/03/17 00:57:47;;;;;;;7.07;4.57;;;;;;;;;;5036098;28;20037;-75
2023/03/17 01:00:12;;;;;;;;;;;;;;;;;;5036522;28;20426;-74
2023/03/17 01:02:38;;;;;;;7.03;4.40;;;;;;;;;;5051976;28;19912;-73
2023/03/17 01:05:05;;;;;;;7.20;4.80;;;;;;;;;;5070638;28;20021;-73
2023/03/17 01:07:32;;;;;;;7.40;4.07;;;;;;;;;;5069367;28;20041;-76
2023/03/17 01:09:58;;;;;;;5.53;4.15;;;;;;;;;;5033942;28;20025;-75
2023/03/17 01:12:25;;;;;;;5.88;4.05;;;;;;;;;;5051442;28;20033;-75
2023/03/17 01:14:51;;;;;;;8.63;4.03;;;;;;;;;;5017494;28;20025;-74
2023/03/17 01:17:17;;;;;;;7.80;4.20;;;;;;;;;;5017367;28;20063;-73
2023/03/17 01:19:43;;;;;;;8.00;3.95;;;;;;;;;;5033520;28;20484;-75
2023/03/17 01:22:09;;;;;;;6.35;4.13;;;;;;;;;;5050714;28;20033;-73
2023/03/17 01:24:35;;;;;;;5.55;3.80;;;;;;;;;;5032882;28;20399;-73
2023/03/17 01:27:01;;;;;;;6.03;3.60;;;;;;;;;;5033132;28;20037;-73
2023/03/17 01:29:27;;;;;;;8.40;4.32;;;;;;;;;;5058293;28;20033;-73
2023/03/17 01:31:52;;;;;;;5.63;3.83;;;;;;;;;;5008991;28;20061;-73
2023/03/17 01:34:18;;;;;;;5.97;3.97;;;;;;;;;;5033268;28;20108;-75
2023/03/17 01:36:43;;;;;;;6.25;3.90;;;;;;;;;;5050810;28;20048;-75
2023/03/17 01:39:09;;;;;;;5.85;3.60;;;;;;;;;;5016509;28;20503;-75
2023/03/17 01:41:35;;;;;;;5.18;3.40;;;;;;;;;;5033404;28;20626;-74
2023/03/17 01:44:00;;;;;;;5.57;3.80;;;;;;;;;;5035512;28;20036;-74
2023/03/17 01:46:34;;;;;;;6.15;3.47;;;;;;;;;;5052607;28;20062;-74
2023/03/17 01:49:04;;;;;;;5.43;3.35;;;;;;;;;;5035044;28;20031;-74
2023/03/17 01:51:36;;;;;;;5.78;3.42;;;;;;;;;;5024028;28;20514;-74
2023/03/17 01:54:03;;;;;;;5.90;3.40;;;;;;;;;;5016525;28;20029;-74
2023/03/17 01:56:29;;;;;;;5.35;3.50;;;;;;;;;;5047967;28;20083;-74
2023/03/17 01:58:55;;;;;;;5.25;3.50;;;;;;;;;;5036331;28;20032;-74
2023/03/17 02:01:22;;;;;;;5.95;3.85;;;;;;;;;;5016783;28;20044;-74
2023/03/17 02:03:49;;;;;;;5.85;3.92;;;;;;;;;;5020396;28;20029;-74
2023/03/17 02:06:14;;;;;;;6.28;3.92;;;;;;;;;;5010695;28;20125;-74
2023/03/17 02:08:40;;;;;;;7.68;3.97;;;;;;;;;;5041392;28;20115;-74
2023/03/17 02:11:06;;;;;;;6.07;3.30;;;;;;;;;;5036258;28;20075;-74
2023/03/17 02:13:31;;;;;;;6.60;3.38;;;;;;;;;;5020176;28;20120;-75
2023/03/17 02:15:57;;;;;;;5.00;2.97;;;;;;;;;;5019866;28;20144;-74
2023/03/17 02:18:22;;;;;;;6.10;3.70;;;;;;;;;;5054009;28;20037;-74
2023/03/17 02:20:48;;;;;;;5.82;3.72;;;;;;;;;;5036182;28;20432;-74
2023/03/17 02:23:15;;;;;;;11.02;3.97;;;;;;;;;;5053796;28;20037;-74
2023/03/17 02:25:41;;;;;;;5.25;3.50;;;;;;;;;;5053780;28;20080;-74
2023/03/17 02:28:08;;;;;;;5.40;3.10;;;;;;;;;;5036078;28;20391;-74
2023/03/17 02:30:34;;;;;;;7.55;3.55;;;;;;;;;;5053487;28;20049;-75
2023/03/17 02:32:59;;;;;;;7.03;3.30;;;;;;;;;;5035953;28;20060;-74
2023/03/17 02:35:25;;;;;;;6.03;3.38;;;;;;;;;;5053719;28;20029;-74
2023/03/17 02:37:51;;;;;;;6.75;3.80;;;;;;;;;;5023065;28;20033;-74
2023/03/17 02:40:17;;;;;;;4.70;3.13;;;;;;;;;;5053585;28;20029;-74
2023/03/17 02:42:43;;;;;;;;;;;;;;;;;;5016297;28;20077;-74
2023/03/17 02:45:10;;;;;;;6.55;3.00;;;;;;;;;;5012831;28;19931;-74
2023/03/17 02:47:36;;;;;;;6.75;3.38;;;;;;;;;;5019589;28;20085;-74
2023/03/17 02:50:03;;;;;;;5.13;3.10;;;;;;;;;;5035225;28;20028;-74
2023/03/17 02:52:29;;;;;;;5.72;3.25;;;;;;;;;;5035830;28;20048;-74
2023/03/17 02:54:54;;;;;;;5.90;3.22;;;;;;;;;;5053609;28;20028;-74
2023/03/17 02:57:20;;;;;;;9.50;5.07;;;;;;;;;;5053270;28;20049;-74
2023/03/17 02:59:46;;;;;;;5.88;3.53;;;;;;;;;;5053175;28;20029;-74
2023/03/17 03:02:11;;;;;;;5.78;3.33;;;;;;;;;;5035277;28;20427;-74
2023/03/17 03:04:37;;;;;;;8.27;3.67;;;;;;;;;;5052231;28;20035;-74
2023/03/17 03:07:02;;;;;;;6.93;3.35;;;;;;;;;;5053312;28;20029;-74
2023/03/17 03:09:28;;;;;;;4.10;2.42;;;;;;;;;;5034915;28;20081;-74
2023/03/17 03:11:54;;;;;;;5.78;2.65;;;;;;;;;;5034743;28;20048;-74
2023/03/17 03:14:19;;;;;;;5.80;3.17;;;;;;;;;;5052193;28;20111;-74
2023/03/17 03:16:45;;;;;;;4.20;2.47;;;;;;;;;;5052461;28;20037;-74
2023/03/17 03:19:11;;;;;;;6.30;3.03;;;;;;;;;;5034123;28;20044;-74
2023/03/17 03:21:36;;;;;;;6.05;3.20;;;;;;;;;;5034610;28;20123;-74
2023/03/17 03:24:02;;;;;;;5.57;3.28;;;;;;;;;;5051609;28;20095;-74
2023/03/17 03:26:27;;;;;;;6.22;3.13;;;;;;;;;;5039877;28;20044;-74
2023/03/17 03:28:53;;;;;;;5.75;3.00;;;;;;;;;;5051103;28;20404;-74
2023/03/17 03:31:18;;;;;;;6.63;3.00;;;;;;;;;;5014498;28;20128;-74
2023/03/17 03:33:44;;;;;;;4.45;2.67;;;;;;;;;;5028936;28;20116;-75
2023/03/17 03:36:10;;;;;;;6.22;2.75;;;;;;;;;;5022351;28;20033;-74
2023/03/17 03:38:35;;;;;;;5.90;2.92;;;;;;;;;;5051781;28;20032;-75
2023/03/17 03:41:01;;;;;;;5.28;3.10;;;;;;;;;;5052350;28;20510;-75
2023/03/17 03:43:26;;;;;;;4.57;2.63;;;;;;;;;;5050194;28;20116;-74
2023/03/17 03:45:53;;;;;;;5.72;3.17;;;;;;;;;;5012585;28;20038;-74
2023/03/17 03:48:18;;;;;;;5.80;2.75;;;;;;;;;;5044622;28;20113;-74
2023/03/17 03:50:44;;;;;;;4.90;2.80;;;;;;;;;;5051546;28;20116;-75
2023/03/17 03:53:09;;;;;;;5.22;3.13;;;;;;;;;;5051563;28;20033;-74
2023/03/17 03:55:35;;;;;;;6.60;2.90;;;;;;;;;;5035604;28;20152;-74
2023/03/17 03:58:01;;;;;;;4.60;2.85;;;;;;;;;;5051520;28;20380;-75
2023/03/17 04:00:26;;;;;;;6.25;4.13;;;;;;;;;;5051365;28;20120;-74
2023/03/17 04:02:52;;;;;;;7.40;3.88;;;;;;;;;;5050157;28;20044;-74
2023/03/17 04:05:18;;;;;;;6.47;4.15;;;;;;;;;;5050116;28;20024;-75
2023/03/17 04:07:43;;;;;;;;;;;;;;;;;;5050587;28;20025;-75
2023/03/17 04:10:10;;;;;;;5.35;2.70;;;;;;;;;;5050044;28;20398;-75
2023/03/17 04:12:35;;;;;;;;;;;;;;;;;;5034739;28;20090;-74
2023/03/17 04:15:01;;;;;;;9.85;4.35;;;;;;;;;;5050345;28;19912;-75
2023/03/17 04:17:26;;;;;;;6.03;3.20;;;;;;;;;;5051825;28;20033;-75
2023/03/17 04:19:52;;;;;;;5.45;3.10;;;;;;;;;;5051812;28;20095;-74
2023/03/17 04:22:17;;;;;;;7.75;3.38;;;;;;;;;;5051781;28;20028;-75
2023/03/17 04:24:43;;;;;;;7.28;3.53;;;;;;;;;;5051517;28;20031;-75
2023/03/17 04:27:08;;;;;;;8.85;4.10;;;;;;;;;;5045988;28;20496;-75
2023/03/17 04:29:34;;;;;;;6.78;3.60;;;;;;;;;;5043832;28;20083;-74
2023/03/17 04:32:01;;;;;;;8.13;3.97;;;;;;;;;;5049991;28;20055;-75
2023/03/17 04:34:27;;;;;;;8.70;4.78;;;;;;;;;;5051297;28;20036;-75
2023/03/17 04:36:52;;;;;;;8.13;4.90;;;;;;;;;;5051228;28;20123;-75
2023/03/17 04:39:18;;;;;;;11.38;4.60;;;;;;;;;;5051061;28;20388;-75
2023/03/17 04:41:44;;;;;;;6.95;4.13;;;;;;;;;;5051145;28;20033;-76
2023/03/17 04:44:09;;;;;;;9.30;4.40;;;;;;;;;;5032740;28;20043;-75
2023/03/17 04:46:35;;;;;;;7.28;3.70;;;;;;;;;;5051217;28;20033;-75
2023/03/17 04:49:00;;;;;;;8.43;4.53;;;;;;;;;;5049511;28;20075;-75
2023/03/17 04:51:26;;;;;;;11.13;5.57;;;;;;;;;;5050968;28;20036;-75
2023/03/17 04:53:52;;;;;;;10.52;4.93;;;;;;;;;;5048080;28;20041;-75
2023/03/17 04:56:17;;;;;;;12.98;6.93;;;;;;;;;;5061444;28;20443;-76
2023/03/17 04:58:43;;;;;;;9.93;4.75;;;;;;;;;;5051537;28;20385;-75
2023/03/17 05:01:08;;;;;;;12.63;5.85;;;;;;;;;;5069988;28;20047;-75
2023/03/17 05:03:34;;;;;;;10.52;4.47;;;;;;;;;;5068591;28;20043;-75
2023/03/17 05:05:59;;;;;;;11.63;6.03;;;;;;;;;;5069724;28;20028;-74
2023/03/17 05:08:27;;;;;;;13.60;6.45;;;;;;;;;;5068428;28;20066;-74
2023/03/17 05:10:55;;;;;;;13.10;6.22;;;;;;;;;;5069616;28;20032;-74
2023/03/17 05:13:20;;;;;;;15.68;6.82;;;;;;;;;;5050948;28;20035;-73
2023/03/17 05:15:46;;;;;;;11.95;5.63;;;;;;;;;;5069567;28;20107;-75
2023/03/17 05:18:12;;;;;;;11.65;5.60;;;;;;;;;;5051218;28;20163;-73
2023/03/17 05:20:37;;;;;;;11.55;5.47;;;;;;;;;;5061643;28;20036;-73
2023/03/17 05:23:03;;;;;;;11.88;5.90;;;;;;;;;;5030879;28;20029;-73
2023/03/17 05:25:28;;;;;;;13.55;6.05;;;;;;;;;;5023837;28;20031;-73
2023/03/17 05:27:54;;;;;;;12.55;5.38;;;;;;;;;;5052809;28;20033;-75
2023/03/17 05:30:19;;;;;;;11.38;5.43;;;;;;;;;;5048362;28;20082;-75
2023/03/17 05:32:45;;;;;;;11.02;5.53;;;;;;;;;;5032663;28;20032;-76
2023/03/17 05:35:11;;;;;;;11.35;5.75;;;;;;;;;;5027435;28;20519;-75
2023/03/17 05:37:37;;;;;;;;;;;;;;;;;;5038660;28;20356;-75
2023/03/17 05:40:03;;;;;;;11.68;5.18;;;;;;;;;;5055707;28;19918;-75
2023/03/17 05:42:28;;;;;;;11.82;5.45;;;;;;;;;;5067693;28;20060;-75
2023/03/17 05:44:54;;;;;;;10.02;4.53;;;;;;;;;;5030989;28;20029;-75
2023/03/17 05:47:19;;;;;;;10.93;4.72;;;;;;;;;;5073110;28;20025;-73
2023/03/17 05:49:45;;;;;;;9.55;5.28;;;;;;;;;;5073034;28;20127;-74
2023/03/17 05:52:11;;;;;;;9.60;5.00;;;;;;;;;;5038545;28;20085;-74
2023/03/17 05:54:36;;;;;;;8.05;5.00;;;;;;;;;;5038324;28;20445;-74
2023/03/17 05:57:02;;;;;;;9.48;4.95;;;;;;;;;;5055023;28;20109;-74
2023/03/17 05:59:28;;;;;;;;;;;;;;;;;;5055892;28;20491;-74
2023/03/17 06:01:54;;;;;;;8.93;4.38;;;;;;;;;;5068187;28;19920;-74
2023/03/17 06:04:19;;;;;;;11.48;5.05;;;;;;;;;;5019182;28;20036;-74
2023/03/17 06:06:45;;;;;;;8.55;4.57;;;;;;;;;;5053536;28;20044;-76
2023/03/17 06:09:10;;;;;;;11.68;5.72;;;;;;;;;;5019250;28;20025;-75
2023/03/17 06:11:37;;;;;;;11.52;5.18;;;;;;;;;;5053784;28;20028;-75
2023/03/17 06:14:02;;;;;;;;;;;;;;;;;;5036217;28;20039;-74
2023/03/17 06:16:29;;;;;;;9.50;4.25;;;;;;;;;;5035614;28;19912;-74
2023/03/17 06:18:55;;;;;;;9.73;4.40;;;;;;;;;;5046973;28;20032;-74
2023/03/17 06:21:21;;;;;;;9.10;4.90;;;;;;;;;;5036900;28;20404;-75
2023/03/17 06:23:46;;;;;;;8.20;4.10;;;;;;;;;;5035509;28;20063;-74
2023/03/17 06:26:11;;;;;;;9.10;5.03;;;;;;;;;;5057982;28;20581;-76
2023/03/17 06:28:37;;;;;;;8.30;4.13;;;;;;;;;;5054898;28;20028;-74
2023/03/17 06:31:02;;;;;;;6.55;3.47;;;;;;;;;;5054601;28;20033;-76
2023/03/17 06:33:28;;;;;;;11.10;3.88;;;;;;;;;;5046551;28;20040;-74
2023/03/17 06:35:53;;;;;;;7.70;3.47;;;;;;;;;;5072050;28;20032;-75
2023/03/17 06:38:20;;;;;;;7.97;3.47;;;;;;;;;;5054646;28;20033;-75
2023/03/17 06:40:46;;;;;;;8.32;3.88;;;;;;;;;;5059449;28;20043;-76
2023/03/17 06:43:16;;;;;;;8.45;3.67;;;;;;;;;;5061066;28;20032;-76
2023/03/17 06:45:41;;;;;;;7.65;3.33;;;;;;;;;;5052970;28;20047;-75
2023/03/17 06:48:07;;;;;;;9.90;4.18;;;;;;;;;;5061275;28;20480;-75
2023/03/17 06:50:32;;;;;;;7.15;3.55;;;;;;;;;;5053000;28;20029;-75
2023/03/17 06:52:58;;;;;;;6.78;3.80;;;;;;;;;;5045793;28;20082;-75
2023/03/17 06:55:23;;;;;;;7.38;3.92;;;;;;;;;;5071997;28;20040;-75
2023/03/17 06:57:49;;;;;;;6.38;3.78;;;;;;;;;;5061499;28;20048;-76
2023/03/17 07:00:14;;;;;;;5.82;3.10;;;;;;;;;;5034983;28;20025;-75
2023/03/17 07:02:40;;;;;;;7.78;3.15;;;;;;;;;;5052417;28;20028;-76
2023/03/17 07:05:06;;;;;;;7.10;3.20;;;;;;;;;;5052104;28;20029;-75
2023/03/17 07:07:34;;;;;;;6.60;3.33;;;;;;;;;;5063207;28;20123;-75
2023/03/17 07:09:59;;;;;;;7.07;3.05;;;;;;;;;;5071331;28;20107;-75
2023/03/17 07:12:26;;;;;;;5.30;2.80;;;;;;;;;;5054304;28;20158;-74
2023/03/17 07:14:51;;;;;;;;;;;;;;;;;;5053596;28;20036;-74
2023/03/17 07:17:17;;;;;;;4.80;2.55;;;;;;;;;;5071326;28;19908;-75
2023/03/17 07:19:43;;;;;;;6.22;2.83;;;;;;;;;;5039835;28;20032;-74
2023/03/17 07:22:09;;;;;;;5.35;2.65;;;;;;;;;;5071389;28;20421;-75
2023/03/17 07:24:35;;;;;;;7.28;2.58;;;;;;;;;;5035047;28;20097;-76
2023/03/17 07:27:00;;;;;;;4.95;2.45;;;;;;;;;;5036846;28;20021;-73
2023/03/17 07:29:27;;;;;;;5.53;2.30;;;;;;;;;;5069539;28;20024;-73
2023/03/17 07:31:53;;;;;;;4.78;2.05;;;;;;;;;;5053503;28;20027;-77
2023/03/17 07:34:19;;;;;;;4.70;2.42;;;;;;;;;;5051888;28;20037;-75
2023/03/17 07:36:44;;;;;;;5.38;2.70;;;;;;;;;;5071173;28;20036;-74
2023/03/17 07:39:10;;;;;;;5.45;2.50;;;;;;;;;;5070211;28;20490;-74
2023/03/17 07:41:35;;;;;;;4.82;2.40;;;;;;;;;;5042526;28;20036;-73
2023/03/17 07:44:02;;;;;;;4.60;2.53;;;;;;;;;;5054426;28;20505;-75
2023/03/17 07:46:28;;;;;;;9.70;2.88;;;;;;;;;;5071488;28;20367;-74
2023/03/17 07:48:54;;;;;;;5.13;2.33;;;;;;;;;;5070884;28;20035;-73
2023/03/17 07:51:21;;;;;;;6.85;2.30;;;;;;;;;;5070994;28;20020;-74
2023/03/17 07:53:48;;;;;;;4.25;2.10;;;;;;;;;;5053129;28;20041;-75
2023/03/17 07:56:14;;;;;;;3.78;2.17;;;;;;;;;;5053606;28;20511;-74
2023/03/17 07:58:40;;;;;;;3.88;1.90;;;;;;;;;;5070628;28;20063;-75
2023/03/17 08:01:07;;;;;;;3.67;1.88;;;;;;;;;;5070948;28;20079;-75
2023/03/17 08:03:33;;;;;;;6.07;1.92;;;;;;;;;;5070410;28;20503;-76
2023/03/17 08:05:59;;;;;;;5.57;1.92;;;;;;;;;;5053512;28;20588;-77
2023/03/17 08:08:26;;;;;;;5.43;1.90;;;;;;;;;;5070489;28;20401;-76
2023/03/17 08:10:51;;;;;;;3.63;1.88;;;;;;;;;;5053294;28;20020;-77
2023/03/17 08:13:16;;;;;;;3.33;1.60;;;;;;;;;;5051959;28;20533;-75
2023/03/17 08:15:42;;;;;;;5.20;1.88;;;;;;;;;;5053264;28;20191;-75
2023/03/17 08:18:32;;;;;;;4.40;2.33;;;;;;;;;;5021693;28;20078;-75
2023/03/17 08:20:58;;;;;;;4.45;2.05;;;;;;;;;;5069723;28;20060;-73
2023/03/17 08:23:24;;;;;;;5.00;2.22;;;;;;;;;;5052522;28;20113;-76
2023/03/17 08:25:49;;;;;;;5.60;2.67;;;;;;;;;;5052282;28;20044;-75
2023/03/17 08:28:15;;;;;;;4.63;2.17;;;;;;;;;;5044730;28;20102;-75
2023/03/17 08:30:41;;;;;;;4.80;2.30;;;;;;;;;;5032904;28;20043;-75
2023/03/17 08:33:07;;;;;;;5.80;2.42;;;;;;;;;;5033243;28;20017;-74
2023/03/17 08:35:33;;;;;;;4.40;1.77;;;;;;;;;;5050908;28;20029;-73
2023/03/17 08:37:59;;;;;;;3.92;1.80;;;;;;;;;;5051232;28;20115;-75
2023/03/17 08:40:25;;;;;;;3.50;1.85;;;;;;;;;;5050782;28;20036;-75
2023/03/17 08:42:50;;;;;;;3.63;2.08;;;;;;;;;;5049812;28;20032;-75
2023/03/17 08:45:17;;;;;;;5.97;2.17;;;;;;;;;;5063643;28;20040;-75
2023/03/17 08:47:42;;;;;;;4.30;2.20;;;;;;;;;;5042928;28;20037;-74
2023/03/17 08:50:09;;;;;;;3.40;2.00;;;;;;;;;;5058993;28;20032;-75
2023/03/17 08:52:34;;;;;;;5.22;2.75;;;;;;;;;;5052825;28;20432;-76
2023/03/17 08:55:00;;;;;;;4.63;1.80;;;;;;;;;;5069531;28;20123;-75
2023/03/17 08:57:26;;;;;;;4.93;1.90;;;;;;;;;;5035807;28;20052;-74
2023/03/17 08:59:52;;;;;;;3.55;1.60;;;;;;;;;;5035630;28;20134;-75
2023/03/17 09:02:18;;;;;;;3.05;1.55;;;;;;;;;;5035198;28;20488;-74
2023/03/17 09:04:43;;;;;;;4.88;1.60;;;;;;;;;;5069662;28;20077;-77
2023/03/17 09:07:11;;;;;;;4.60;1.98;;;;;;;;;;5044237;28;20062;-75
2023/03/17 09:09:37;;;;;;;3.58;1.70;;;;;;;;;;5016276;28;20068;-75
2023/03/17 09:12:04;;;;;;;5.95;1.70;;;;;;;;;;5032562;28;20055;-75
2023/03/17 09:14:30;;;;;;;3.60;1.60;;;;;;;;;;5032423;28;20032;-75
2023/03/17 09:16:55;;;;;;;3.65;1.55;;;;;;;;;;5050119;28;20439;-74
2023/03/17 09:19:22;;;;;;;2.85;1.50;;;;;;;;;;5062921;28;20093;-75
2023/03/17 09:21:48;;;;;;;3.78;1.70;;;;;;;;;;5050374;28;20044;-75
2023/03/17 09:24:13;;;;;;;5.15;1.83;;;;;;;;;;5049897;28;20033;-74
2023/03/17 09:26:39;;;;;;;5.13;1.77;;;;;;;;;;5058888;28;20028;-75
2023/03/17 09:29:06;;;;;;;5.13;1.50;;;;;;;;;;5051592;28;20036;-76
2023/03/17 09:31:31;;;;;;;3.67;1.30;;;;;;;;;;5051512;28;20502;-76
2023/03/17 09:33:57;;;;;;;2.50;1.25;;;;;;;;;;5068450;28;20032;-77
2023/03/17 09:36:23;;;;;;;4.13;1.52;;;;;;;;;;5069152;28;20071;-75
2023/03/17 09:38:50;;;;;;;4.65;1.38;;;;;;;;;;5068414;28;20056;-76
2023/03/17 09:41:16;;;;;;;3.28;1.20;;;;;;;;;;5069254;28;20459;-76
2023/03/17 09:43:48;;;;;;;2.80;1.20;;;;;;;;;;5065776;28;20048;-76
2023/03/17 09:46:14;;;;;;;2.78;1.20;;;;;;;;;;5045473;28;20079;-75
2023/03/17 09:48:49;;;;;;;2.95;1.30;;;;;;;;;;5032268;28;20369;-76
2023/03/17 09:51:18;;;;;;;3.90;1.38;;;;;;;;;;5050165;28;20028;-76
2023/03/17 09:53:53;;;;;;;2.78;1.20;;;;;;;;;;5032109;28;20043;-76
2023/03/17 09:56:18;;;;;;;2.88;1.60;;;;;;;;;;5049560;28;20063;-76
2023/03/17 09:58:57;;;;;;;3.42;1.60;;;;;;;;;;5049618;28;20119;-75
2023/03/17 10:01:22;;;;;;;2.50;1.20;;;;;;;;;;5032194;28;20045;-76
2023/03/17 10:03:49;;;;;;;3.28;1.67;;;;;;;;;;5031570;28;20047;-74
2023/03/17 10:06:28;;;;;;;4.25;2.63;;;;;;;;;;5032066;28;20116;-76
2023/03/17 10:08:55;;;;;;;3.78;1.40;;;;;;;;;;5031865;28;20119;-77
2023/03/17 10:11:30;;;;;;;4.72;2.33;;;;;;;;;;5049277;28;20025;-74
2023/03/17 10:14:20;;;;;;;4.65;1.50;;;;;;;;;;5017863;28;20029;-76
2023/03/17 10:17:04;;;;;;;3.65;1.50;;;;;;;;;;5024998;28;20044;-75
2023/03/17 10:19:39;;;;;;;3.33;1.40;;;;;;;;;;5053489;28;20043;-74
2023/03/17 10:22:09;;;;;;;3.28;1.50;;;;;;;;;;5023183;28;20064;-77
2023/03/17 10:24:35;;;;;;;4.38;1.70;;;;;;;;;;5035412;28;20032;-77
2023/03/17 10:27:02;;;;;;;4.05;1.90;;;;;;;;;;5035836;28;20024;-77
2023/03/17 10:29:30;;;;;;;5.30;2.10;;;;;;;;;;5053176;28;20040;-74
2023/03/17 10:31:56;;;;;;;3.95;1.75;;;;;;;;;;5053107;28;20037;-77
2023/03/17 10:34:26;;;;;;;4.22;1.95;;;;;;;;;;5035876;28;20029;-76
2023/03/17 10:37:04;;;;;;;4.75;2.13;;;;;;;;;;5035147;28;20036;-75
2023/03/17 10:39:30;;;;;;;4.43;2.13;;;;;;;;;;5035260;28;20037;-76
2023/03/17 10:41:58;;;;;;;5.18;2.30;;;;;;;;;;5034620;28;20392;-75
2023/03/17 10:44:33;;;;;;;4.65;1.65;;;;;;;;;;5034471;28;20068;-76
2023/03/17 10:46:59;;;;;;;2.40;1.30;;;;;;;;;;5018358;28;20043;-75
2023/03/17 10:49:25;;;;;;;4.50;1.40;;;;;;;;;;5052750;28;20463;-75
2023/03/17 10:51:51;;;;;;;;;;;;;;;;;;5053405;28;20029;-74
2023/03/17 10:54:17;;;;;;;3.10;1.40;;;;;;;;;;5052832;28;19908;-76
2023/03/17 10:56:43;;;;;;;2.45;1.40;;;;;;;;;;5066697;28;20060;-75
2023/03/17 10:59:09;;;;;;;;;;;;;;;;;;5038355;28;20036;-74
2023/03/17 11:01:38;;;;;;;3.67;1.20;;;;;;;;;;5053986;28;19918;-75
2023/03/17 11:04:22;;;;;;;3.60;2.00;;;;;;;;;;5054499;28;20107;-74
2023/03/17 11:06:49;;;;;;;2.65;1.50;;;;;;;;;;5071512;28;20028;-75
2023/03/17 11:09:15;;;;;;;3.97;1.83;;;;;;;;;;5053831;28;20020;-74
2023/03/17 11:11:42;;;;;;;3.30;1.30;;;;;;;;;;5053493;28;20024;-74
2023/03/17 11:14:15;;;;;;;2.22;1.27;;;;;;;;;;5037456;28;20081;-75
2023/03/17 11:16:46;;;;;;;3.75;1.35;;;;;;;;;;5053615;28;20058;-76
2023/03/17 11:19:13;;;;;;;3.17;1.63;;;;;;;;;;5071839;28;20040;-75
2023/03/17 11:21:50;;;;;;;3.72;1.48;;;;;;;;;;5053758;28;20024;-76
2023/03/17 11:24:18;;;;;;;4.68;2.38;;;;;;;;;;5053994;28;20032;-76
2023/03/17 11:27:00;;;;;;;2.95;1.50;;;;;;;;;;5053092;28;20016;-77
2023/03/17 11:29:34;;;;;;;6.15;1.38;;;;;;;;;;5070789;28;20051;-75
2023/03/17 11:32:19;;;;;;;3.42;1.67;;;;;;;;;;5017684;28;20033;-76
2023/03/17 11:34:45;;;;;;;3.15;1.40;;;;;;;;;;5070159;28;20085;-76
2023/03/17 11:37:10;;;;;;;;;;;;;;;;;;5072044;28;20028;-76
2023/03/17 11:39:39;;;;;;;3.08;1.50;;;;;;;;;;5040467;28;19920;-76
2023/03/17 11:42:11;;;;;;;3.47;1.65;;;;;;;;;;5068532;28;20518;-74
2023/03/17 11:44:48;;;;;;;4.57;1.80;;;;;;;;;;5017189;28;20047;-74
2023/03/17 11:47:14;;;;;;;2.88;1.50;;;;;;;;;;5055205;28;20028;-76
2023/03/17 11:49:39;;;;;;;;;;;;;;;;;;5054481;28;20028;-75
2023/03/17 11:52:37;;;;;;;3.72;2.13;;;;;;;;;;5070739;28;19919;-76
2023/03/17 11:55:22;;;;;;;3.95;1.92;;;;;;;;;;4999607;28;20101;-76
2023/03/17 11:57:47;;;;;;;3.53;1.70;;;;;;;;;;5053499;28;20452;-75
2023/03/17 12:00:15;;;;;;;;;;;;;;;;;;5070392;28;20033;-76
2023/03/17 12:02:42;;;;;;;3.60;1.52;;;;;;;;;;5070785;28;20418;-76
2023/03/17 12:05:08;;;;;;;3.47;1.58;;;;;;;;;;5052568;28;20032;-77
2023/03/17 12:07:57;;;;;;;4.18;1.58;;;;;;;;;;5070942;28;20036;-75
2023/03/17 12:10:29;;;;;;;4.13;1.90;;;;;;;;;;5056664;28;20127;-74
2023/03/17 12:13:00;;;;;;;4.15;1.90;;;;;;;;;;5035927;28;20037;-74
2023/03/17 12:15:30;;;;;;;5.07;1.90;;;;;;;;;;5036268;28;20036;-76
2023/03/17 12:17:56;;;;;;;3.60;1.55;;;;;;;;;;5037678;28;20045;-76
2023/03/17 12:20:30;;;;;;;5.47;2.35;;;;;;;;;;5041524;28;20024;-75
2023/03/17 12:22:55;;;;;;;3.40;1.90;;;;;;;;;;5049765;28;20151;-76
2023/03/17 12:25:21;;;;;;;;;;;;;;;;;;5060511;28;20119;-77
2023/03/17 12:28:05;;;;;;;3.63;1.45;;;;;;;;;;5054906;28;20375;-76
2023/03/17 12:30:31;;;;;;;3.22;1.42;;;;;;;;;;5033403;28;20036;-76
2023/03/17 12:32:56;;;;;;;;;;;;;;;;;;5069186;28;20099;-76
2023/03/17 12:35:30;;;;;;;2.55;1.55;;;;;;;;;;5052788;28;20145;-76
2023/03/17 12:37:57;;;;;;;3.50;1.90;;;;;;;;;;5052438;28;20085;-75
2023/03/17 12:40:24;;;;;;;3.60;1.90;;;;;;;;;;5070661;28;20032;-75
2023/03/17 12:43:08;;;;;;;4.25;2.13;;;;;;;;;;5061658;28;20488;-76
2023/03/17 12:45:36;;;;;;;3.13;1.90;;;;;;;;;;5050560;28;20044;-76
2023/03/17 12:48:34;;;;;;;3.13;1.73;;;;;;;;;;5055176;28;20559;-75
2023/03/17 12:51:08;;;;;;;5.45;1.45;;;;;;;;;;5015620;28;20055;-74
2023/03/17 12:53:40;;;;;;;3.22;1.42;;;;;;;;;;5069859;28;20479;-76
2023/03/17 12:56:24;;;;;;;3.67;1.30;;;;;;;;;;5060822;28;20063;-74
2023/03/17 12:58:50;;;;;;;1.80;1.13;;;;;;;;;;5050275;28;20033;-77
2023/03/17 13:01:24;;;;;;;3.63;1.30;;;;;;;;;;5032690;28;20033;-77
2023/03/17 13:04:05;;;;;;;3.63;1.70;;;;;;;;;;5050410;28;20044;-74
2023/03/17 13:06:34;;;;;;;4.05;2.40;;;;;;;;;;5049866;28;20040;-76
2023/03/17 13:09:20;;;;;;;6.78;3.10;;;;;;;;;;5012764;28;20040;-76
2023/03/17 13:11:46;;;;;;;6.30;2.77;;;;;;;;;;5036881;28;20039;-76
2023/03/17 13:14:15;;;;;;;5.65;2.90;;;;;;;;;;5050122;28;20028;-76
2023/03/17 13:16:40;;;;;;;7.45;3.00;;;;;;;;;;5019917;28;20065;-76
2023/03/17 13:19:16;;;;;;;4.63;2.58;;;;;;;;;;5050113;28;20056;-76
2023/03/17 13:21:47;;;;;;;5.90;2.50;;;;;;;;;;5050027;28;20040;-76
2023/03/17 13:24:17;;;;;;;4.50;2.22;;;;;;;;;;5032035;28;20041;-75
2023/03/17 13:27:00;;;;;;;2.85;1.70;;;;;;;;;;5032302;28;20021;-75
2023/03/17 13:29:44;;;;;;;4.28;2.25;;;;;;;;;;5031777;28;20126;-77
2023/03/17 13:32:15;;;;;;;4.68;1.77;;;;;;;;;;5049918;28;20040;-76
2023/03/17 13:34:45;;;;;;;3.30;1.40;;;;;;;;;;5050040;28;20090;-77
2023/03/17 13:37:29;;;;;;;2.95;1.65;;;;;;;;;;5032239;28;20033;-75
2023/03/17 13:40:09;;;;;;;3.45;1.83;;;;;;;;;;5049949;28;20032;-75
2023/03/17 13:42:53;;;;;;;2.40;1.40;;;;;;;;;;5030930;28;20036;-76
2023/03/17 13:45:19;;;;;;;3.58;1.50;;;;;;;;;;5049734;28;20496;-75
2023/03/17 13:47:46;;;;;;;2.72;1.45;;;;;;;;;;5049843;28;20029;-75
2023/03/17 13:50:12;;;;;;;2.60;1.50;;;;;;;;;;5053075;28;20036;-75
2023/03/17 13:52:42;;;;;;;4.25;1.85;;;;;;;;;;5053885;28;20021;-76
2023/03/17 13:55:17;;;;;;;3.17;1.67;;;;;;;;;;5035981;28;20119;-75
2023/03/17 13:57:42;;;;;;;3.65;1.83;;;;;;;;;;5019745;28;20053;-76
2023/03/17 14:00:24;;;;;;;4.80;1.90;;;;;;;;;;5035695;28;20040;-75
2023/03/17 14:02:53;;;;;;;5.95;2.30;;;;;;;;;;5019364;28;20045;-75
2023/03/17 14:05:20;;;;;;;4.75;2.53;;;;;;;;;;5035525;28;20033;-74
2023/03/17 14:07:48;;;;;;;4.03;2.80;;;;;;;;;;5019534;28;20044;-76
2023/03/17 14:10:20;;;;;;;4.35;2.78;;;;;;;;;;5035606;28;20569;-76
2023/03/17 14:12:51;;;;;;;5.30;3.00;;;;;;;;;;5035638;28;20041;-74
2023/03/17 14:15:20;;;;;;;4.05;2.60;;;;;;;;;;5035841;28;20431;-76
2023/03/17 14:17:47;;;;;;;5.32;2.67;;;;;;;;;;5053196;28;20033;-76
2023/03/17 14:20:15;;;;;;;4.85;2.65;;;;;;;;;;5053998;28;20043;-76
2023/03/17 14:22:42;;;;;;;5.32;2.88;;;;;;;;;;5052989;28;20029;-75
2023/03/17 14:25:17;;;;;;;4.57;2.13;;;;;;;;;;5053058;28;20088;-75
2023/03/17 14:27:43;;;;;;;5.57;2.60;;;;;;;;;;5052834;28;20403;-76
2023/03/17 14:30:18;;;;;;;5.20;2.70;;;;;;;;;;5052987;28;20040;-75
2023/03/17 14:32:49;;;;;;;3.72;2.63;;;;;;;;;;5035138;28;20035;-75
2023/03/17 14:35:14;;;;;;;4.57;2.22;;;;;;;;;;5053432;28;20033;-75
2023/03/17 14:37:40;;;;;;;4.93;2.80;;;;;;;;;;5034859;28;20035;-76
2023/03/17 14:40:22;;;;;;;4.05;2.20;;;;;;;;;;5035247;28;20123;-76
2023/03/17 14:42:47;;;;;;;2.97;2.00;;;;;;;;;;5021859;28;20064;-75
2023/03/17 14:45:39;;;;;;;4.00;1.95;;;;;;;;;;5034672;28;20064;-77
2023/03/17 14:48:05;;;;;;;4.07;2.38;;;;;;;;;;5030116;28;20492;-76
2023/03/17 14:50:30;;;;;;;4.38;2.20;;;;;;;;;;5051874;28;20031;-75
2023/03/17 14:52:56;;;;;;;;;;;;;;;;;;5052796;28;20037;-76